Time;durP1;ratioP1;P1;durP2;ratioP2;P2;SDS_P1;SDS_P2;PMS_P1;PMS_P2;Temp;Humidity;BMP_temperature;BMP_pressure;BME280_temperature;BME280_humidity;BME280_pressure;Samples;Min_cycle;Max_cycle;Signal;HPM_P1;HPM_P2
2021/03/29 00:00:18;;;;;;;7.70;4.77;;;13.90;69.30;;;;;;5073154;28;20411;-73
2021/03/29 00:02:44;;;;;;;7.13;5.60;;;13.80;68.40;;;;;;5073412;28;20459;-73
2021/03/29 00:05:11;;;;;;;8.60;5.30;;;13.80;68.90;;;;;;5073097;28;20412;-73
2021/03/29 00:07:38;;;;;;;7.23;4.33;;;13.80;68.70;;;;;;5072370;28;20422;-73
2021/03/29 00:10:06;;;;;;;5.20;4.20;;;13.80;68.60;;;;;;5072941;28;20455;-73
2021/03/29 00:12:35;;;;;;;5.50;4.10;;;13.90;68.20;;;;;;5072195;28;20901;-73
2021/03/29 00:15:04;;;;;;;6.80;4.37;;;13.90;68.30;;;;;;5073087;28;20413;-73
2021/03/29 00:17:31;;;;;;;8.07;5.30;;;13.90;68.50;;;;;;5072605;28;20761;-74
2021/03/29 00:19:57;;;;;;;12.90;4.87;;;13.90;68.50;;;;;;5072727;28;20421;-74
2021/03/29 00:22:23;;;;;;;5.67;3.77;;;13.90;68.10;;;;;;5072307;28;20402;-73
2021/03/29 00:24:50;;;;;;;6.13;3.87;;;14.00;68.20;;;;;;5073240;28;20414;-73
2021/03/29 00:27:16;;;;;;;6.03;4.20;;;14.00;68.00;;;;;;5072542;28;20441;-73
2021/03/29 00:29:42;;;;;;;7.80;4.30;;;14.00;67.90;;;;;;5072081;28;20452;-74
2021/03/29 00:32:09;;;;;;;5.63;3.70;;;14.00;68.10;;;;;;5073055;28;20305;-72
2021/03/29 00:34:36;;;;;;;9.50;4.93;;;14.00;68.20;;;;;;5072048;28;20511;-73
2021/03/29 00:37:03;;;;;;;11.03;5.60;;;14.00;67.70;;;;;;5072827;28;20459;-74
2021/03/29 00:39:30;;;;;;;5.17;4.30;;;14.00;67.80;;;;;;5071724;28;20899;-74
2021/03/29 00:41:56;;;;;;;8.50;4.63;;;13.90;67.40;;;;;;5072465;28;20427;-74
2021/03/29 00:44:23;;;;;;;4.70;4.17;;;13.90;68.30;;;;;;5071916;28;20499;-74
2021/03/29 00:46:49;;;;;;;8.20;4.90;;;14.00;68.10;;;;;;5072374;28;20402;-74
2021/03/29 00:49:16;;;;;;;11.17;5.07;;;13.90;67.80;;;;;;5072473;28;20793;-73
2021/03/29 00:51:42;;;;;;;6.37;4.53;;;14.00;68.10;;;;;;5072101;28;20417;-73
2021/03/29 00:54:09;;;;;;;7.53;5.10;;;14.00;67.80;;;;;;5072519;28;20931;-73
2021/03/29 00:56:36;;;;;;;5.43;4.70;;;14.00;68.00;;;;;;5071306;28;20412;-73
2021/03/29 00:59:04;;;;;;;7.20;5.30;;;14.00;68.70;;;;;;5072455;28;20405;-73
2021/03/29 01:01:38;;;;;;;7.40;4.90;;;14.00;67.90;;;;;;5071680;28;20498;-73
2021/03/29 01:04:05;;;;;;;6.40;4.37;;;14.00;68.20;;;;;;5072164;28;20538;-73
2021/03/29 01:06:36;;;;;;;7.90;5.60;;;13.90;68.00;;;;;;5070949;28;20408;-73
2021/03/29 01:09:07;;;;;;;6.00;5.40;;;13.90;68.20;;;;;;5072096;28;20896;-73
2021/03/29 01:11:43;;;;;;;8.47;4.87;;;14.00;68.00;;;;;;5070076;28;20444;-73
2021/03/29 01:14:14;;;;;;;6.60;5.30;;;13.90;68.00;;;;;;5072374;28;20407;-73
2021/03/29 01:16:43;;;;;;;10.40;4.93;;;13.90;68.00;;;;;;5071482;28;20407;-73
2021/03/29 01:19:25;;;;;;;9.17;5.77;;;13.90;67.70;;;;;;5072213;28;20405;-73
2021/03/29 01:22:09;;;;;;;5.40;4.87;;;13.90;67.90;;;;;;5071044;28;20401;-73
2021/03/29 01:24:59;;;;;;;5.93;5.20;;;13.90;67.80;;;;;;5071476;28;20911;-73
2021/03/29 01:27:32;;;;;;;8.40;6.17;;;13.90;68.10;;;;;;5070110;28;20413;-73
2021/03/29 01:29:59;;;;;;;8.77;5.57;;;13.90;68.10;;;;;;5071881;28;20460;-73
2021/03/29 01:32:26;;;;;;;9.57;5.87;;;13.80;68.10;;;;;;5071116;28;20436;-73
2021/03/29 01:34:53;;;;;;;5.70;5.17;;;13.80;68.20;;;;;;5071555;28;20432;-73
2021/03/29 01:37:20;;;;;;;9.90;5.60;;;13.90;68.30;;;;;;5071802;28;20447;-73
2021/03/29 01:39:49;;;;;;;6.37;4.90;;;13.80;68.00;;;;;;5071655;28;20412;-73
2021/03/29 01:42:16;;;;;;;7.67;5.67;;;13.80;68.60;;;;;;5071972;28;20406;-73
2021/03/29 01:44:43;;;;;;;7.33;5.53;;;13.80;68.70;;;;;;5071020;28;20449;-73
2021/03/29 01:47:10;;;;;;;10.27;5.93;;;13.80;68.60;;;;;;5071491;28;20430;-74
2021/03/29 01:49:36;;;;;;;9.80;5.50;;;13.70;68.50;;;;;;5071117;28;21026;-73
2021/03/29 01:52:04;;;;;;;8.50;4.87;;;13.70;68.40;;;;;;5071916;28;20414;-74
2021/03/29 01:54:32;;;;;;;9.87;5.20;;;13.70;68.40;;;;;;5071092;28;20985;-73
2021/03/29 01:56:59;;;;;;;6.17;5.30;;;13.70;68.40;;;;;;5071452;28;20481;-73
2021/03/29 01:59:25;;;;;;;8.73;5.37;;;13.60;68.60;;;;;;5070990;28;20407;-74
2021/03/29 02:01:51;;;;;;;7.40;5.17;;;13.70;68.70;;;;;;5071584;28;20418;-74
2021/03/29 02:04:17;;;;;;;9.00;5.57;;;13.70;68.40;;;;;;5071841;28;20571;-74
2021/03/29 02:06:43;;;;;;;7.13;5.83;;;13.70;68.40;;;;;;5069274;28;20174;-74
2021/03/29 02:09:11;;;;;;;11.90;5.27;;;13.70;68.40;;;;;;5071525;28;20473;-74
2021/03/29 02:11:39;;;;;;;8.70;5.10;;;13.70;68.50;;;;;;5070747;28;20478;-73
2021/03/29 02:14:06;;;;;;;8.37;4.93;;;13.60;68.30;;;;;;5071770;28;20404;-74
2021/03/29 02:16:33;;;;;;;8.10;5.10;;;13.70;68.10;;;;;;5070820;28;20415;-74
2021/03/29 02:19:02;;;;;;;9.50;5.20;;;13.60;68.00;;;;;;5073083;28;20434;-74
2021/03/29 02:21:39;;;;;;;7.00;5.50;;;13.60;68.00;;;;;;5074621;28;20453;-73
2021/03/29 02:24:06;;;;;;;6.87;5.07;;;13.70;68.00;;;;;;5075469;28;20403;-73
2021/03/29 02:26:36;;;;;;;6.13;5.10;;;13.70;67.90;;;;;;5074193;28;20416;-73
2021/03/29 02:29:02;;;;;;;7.73;4.70;;;13.60;67.50;;;;;;5075057;28;20461;-73
2021/03/29 02:31:29;;;;;;;10.17;5.40;;;13.50;67.70;;;;;;5073860;28;20478;-73
2021/03/29 02:33:57;;;;;;;7.53;4.93;;;13.50;68.00;;;;;;5074963;28;20415;-73
2021/03/29 02:36:23;;;;;;;6.70;4.43;;;13.60;68.10;;;;;;5074674;28;20848;-73
2021/03/29 02:38:49;;;;;;;7.67;4.67;;;13.60;68.20;;;;;;5074754;28;20408;-73
2021/03/29 02:41:20;;;;;;;7.30;4.87;;;13.50;68.10;;;;;;5075184;28;20422;-73
2021/03/29 02:43:47;;;;;;;6.23;4.40;;;13.50;68.10;;;;;;5074344;28;20638;-74
2021/03/29 02:46:14;;;;;;;5.83;4.30;;;13.40;67.90;;;;;;5074725;28;20430;-73
2021/03/29 02:48:44;;;;;;;10.63;5.17;;;13.40;68.30;;;;;;5074154;28;20415;-73
2021/03/29 02:51:12;;;;;;;8.43;4.67;;;13.40;68.00;;;;;;5074909;28;20453;-74
2021/03/29 02:53:43;;;;;;;7.73;4.47;;;13.50;68.00;;;;;;5074024;28;20420;-74
2021/03/29 02:56:14;;;;;;;7.00;4.30;;;13.50;67.90;;;;;;5074571;28;20404;-74
2021/03/29 02:58:43;;;;;;;7.60;4.90;;;13.40;67.90;;;;;;5074005;28;20393;-74
2021/03/29 03:01:12;;;;;;;5.73;4.00;;;13.50;68.00;;;;;;5073491;28;20915;-72
2021/03/29 03:03:41;;;;;;;6.10;5.10;;;13.50;68.40;;;;;;5073819;28;20408;-72
2021/03/29 03:06:07;;;;;;;4.83;4.10;;;13.50;68.00;;;;;;5074235;28;20467;-72
2021/03/29 03:08:36;;;;;;;6.97;4.43;;;13.50;67.60;;;;;;5074032;28;20905;-72
2021/03/29 03:11:03;;;;;;;8.73;4.80;;;13.60;68.00;;;;;;5074571;28;20232;-72
2021/03/29 03:13:29;;;;;;;6.33;4.47;;;13.60;67.80;;;;;;5073601;28;20456;-73
2021/03/29 03:15:55;;;;;;;7.17;4.30;;;13.60;67.50;;;;;;5072836;28;20443;-72
2021/03/29 03:18:21;;;;;;;7.57;4.23;;;13.60;67.70;;;;;;5073008;28;20883;-73
2021/03/29 03:20:47;;;;;;;8.87;4.37;;;13.60;68.00;;;;;;5069981;28;20258;-73
2021/03/29 03:23:15;;;;;;;7.77;4.40;;;13.50;68.10;;;;;;5074346;28;20170;-73
2021/03/29 03:25:45;;;;;;;6.60;4.80;;;13.50;67.80;;;;;;5073392;28;20790;-72
2021/03/29 03:28:13;;;;;;;4.90;4.03;;;13.50;68.10;;;;;;5054171;28;20470;-72
2021/03/29 03:30:46;;;;;;;7.70;4.23;;;13.50;67.80;;;;;;5052676;28;20514;-72
2021/03/29 03:33:14;;;;;;;7.43;4.33;;;13.50;68.10;;;;;;5054225;28;20396;-72
2021/03/29 03:35:43;;;;;;;10.70;5.30;;;13.50;68.10;;;;;;5053028;28;20423;-73
2021/03/29 03:38:30;;;;;;;6.80;4.10;;;13.50;68.40;;;;;;5073787;28;20908;-73
2021/03/29 03:41:02;;;;;;;8.10;4.33;;;13.50;68.10;;;;;;5073928;28;20413;-73
2021/03/29 03:43:32;;;;;;;7.47;4.47;;;13.50;67.90;;;;;;5073152;28;20450;-74
2021/03/29 03:46:02;;;;;;;8.93;4.50;;;13.50;68.20;;;;;;5073448;28;20399;-74
2021/03/29 03:48:29;;;;;;;9.13;4.40;;;13.40;68.50;;;;;;5073250;28;20442;-74
2021/03/29 03:50:57;;;;;;;7.10;6.40;;;13.40;68.30;;;;;;5073603;28;20490;-74
2021/03/29 03:53:25;;;;;;;7.53;6.63;;;13.40;68.40;;;;;;5073697;28;20403;-73
2021/03/29 03:55:57;;;;;;;9.07;4.90;;;13.40;68.50;;;;;;5071327;28;20400;-74
2021/03/29 03:58:24;;;;;;;6.27;5.40;;;13.30;68.20;;;;;;5073608;28;20407;-74
2021/03/29 04:00:51;;;;;;;5.80;4.40;;;13.30;68.60;;;;;;5072541;28;20663;-74
2021/03/29 04:03:17;;;;;;;7.13;6.47;;;13.40;68.90;;;;;;5073195;28;20407;-74
2021/03/29 04:05:43;;;;;;;5.90;4.10;;;13.30;68.50;;;;;;5072540;28;20741;-74
2021/03/29 04:08:10;;;;;;;6.53;4.47;;;13.40;68.50;;;;;;5073064;28;20434;-73
2021/03/29 04:13:13;;;;;;;6.37;4.07;;;13.30;68.70;;;;;;5073298;28;20396;-73
2021/03/29 04:15:39;;;;;;;6.10;5.50;;;13.40;68.70;;;;;;5072275;28;20415;-74
2021/03/29 04:18:05;;;;;;;9.63;5.57;;;13.30;68.60;;;;;;5072965;28;20466;-73
2021/03/29 04:20:31;;;;;;;6.03;4.70;;;13.30;68.70;;;;;;5072613;28;20765;-74
2021/03/29 04:22:57;;;;;;;9.17;5.93;;;13.30;68.80;;;;;;5073017;28;20399;-74
2021/03/29 04:25:23;;;;;;;6.57;4.83;;;13.30;69.00;;;;;;5072732;28;20400;-75
2021/03/29 04:27:49;;;;;;;7.73;6.60;;;13.30;68.90;;;;;;5071542;28;20985;-74
2021/03/29 04:30:15;;;;;;;7.40;4.27;;;13.40;68.90;;;;;;5072853;28;20568;-74
2021/03/29 04:32:45;;;;;;;8.43;7.27;;;13.30;69.00;;;;;;5070894;28;20183;-74
2021/03/29 04:35:11;;;;;;;8.43;4.30;;;13.30;69.10;;;;;;5073082;28;20478;-74
2021/03/29 04:37:37;;;;;;;8.50;5.30;;;13.30;69.20;;;;;;5071703;28;20412;-74
2021/03/29 04:40:03;;;;;;;6.63;5.50;;;13.30;69.20;;;;;;5072733;28;20409;-74
2021/03/29 04:42:29;;;;;;;6.33;5.63;;;13.20;69.20;;;;;;5071334;28;20212;-74
2021/03/29 04:44:55;;;;;;;5.70;4.70;;;13.20;69.40;;;;;;5071560;28;20943;-74
2021/03/29 04:47:20;;;;;;;5.20;4.70;;;13.20;69.80;;;;;;5072344;28;20265;-74
2021/03/29 04:49:46;;;;;;;7.33;5.57;;;13.10;69.80;;;;;;5071671;28;20205;-74
2021/03/29 04:52:12;;;;;;;5.47;4.07;;;13.10;70.00;;;;;;5072549;28;20181;-74
2021/03/29 04:54:38;;;;;;;8.30;4.00;;;13.10;69.90;;;;;;5071573;28;20181;-74
2021/03/29 04:57:04;;;;;;;11.90;6.53;;;13.10;70.10;;;;;;5072383;28;20625;-74
2021/03/29 04:59:30;;;;;;;7.73;5.40;;;13.10;70.00;;;;;;5071391;28;20701;-74
2021/03/29 05:01:56;;;;;;;8.97;8.10;;;13.10;70.00;;;;;;5071813;28;20506;-74
2021/03/29 05:04:21;;;;;;;6.33;5.67;;;13.20;70.30;;;;;;5072267;28;20734;-74
2021/03/29 05:06:47;;;;;;;7.33;6.53;;;13.20;70.30;;;;;;5082738;28;20259;-74
2021/03/29 05:09:13;;;;;;;8.63;5.77;;;13.20;70.50;;;;;;5075520;28;20190;-73
2021/03/29 05:11:52;;;;;;;8.33;4.60;;;13.10;70.50;;;;;;5072312;28;20208;-74
2021/03/29 05:14:19;;;;;;;7.40;5.20;;;13.10;70.60;;;;;;5071524;28;20527;-74
2021/03/29 05:16:45;;;;;;;6.83;6.10;;;13.10;70.80;;;;;;5070154;28;20415;-74
2021/03/29 05:19:11;;;;;;;8.80;4.70;;;13.10;70.20;;;;;;5070753;28;20505;-74
2021/03/29 05:21:38;;;;;;;6.90;6.23;;;13.10;70.80;;;;;;5069934;28;20505;-74
2021/03/29 05:24:06;;;;;;;6.00;5.30;;;13.10;71.00;;;;;;5072162;28;20432;-74
2021/03/29 05:26:32;;;;;;;5.97;5.00;;;13.10;71.00;;;;;;5070752;28;20449;-74
2021/03/29 05:28:58;;;;;;;6.07;5.00;;;13.20;70.90;;;;;;5081165;28;20457;-74
2021/03/29 05:31:24;;;;;;;6.40;3.63;;;13.20;70.80;;;;;;5073788;28;20943;-74
2021/03/29 05:33:49;;;;;;;5.83;4.30;;;13.20;70.80;;;;;;5071002;28;20419;-74
2021/03/29 05:36:16;;;;;;;7.90;6.90;;;13.20;70.80;;;;;;5071136;28;20423;-73
2021/03/29 05:38:46;;;;;;;7.17;4.77;;;13.20;71.00;;;;;;5068565;28;20256;-73
2021/03/29 05:41:13;;;;;;;5.47;4.40;;;13.20;71.00;;;;;;5070808;28;20501;-73
2021/03/29 05:43:40;;;;;;;6.93;4.93;;;13.10;71.20;;;;;;5071158;28;20407;-73
2021/03/29 05:46:06;;;;;;;9.57;5.70;;;13.20;71.20;;;;;;5082660;28;20437;-72
2021/03/29 05:48:32;;;;;;;6.93;5.33;;;13.20;71.00;;;;;;5080265;28;20423;-72
2021/03/29 05:51:00;;;;;;;5.27;4.87;;;13.30;71.30;;;;;;5071824;28;20510;-72
2021/03/29 05:53:26;;;;;;;7.33;4.63;;;13.20;71.30;;;;;;5073346;28;20431;-73
2021/03/29 05:55:52;;;;;;;8.20;5.00;;;13.30;71.30;;;;;;5074824;28;20435;-72
2021/03/29 06:00:50;;;;;;;6.70;4.93;;;13.30;71.40;;;;;;5074722;28;20255;-73
2021/03/29 06:03:27;;;;;;;5.73;5.03;;;13.30;71.40;;;;;;5075955;28;20466;-72
2021/03/29 06:06:09;;;;;;;6.93;5.07;;;13.30;70.90;;;;;;5074064;28;20478;-72
2021/03/29 06:08:41;;;;;;;10.37;4.90;;;13.30;71.00;;;;;;5075431;28;20404;-73
2021/03/29 06:11:22;;;;;;;7.67;6.87;;;13.50;74.60;;;;;;5075502;28;20802;-72
2021/03/29 06:14:07;;;;;;;8.53;5.57;;;13.80;74.00;;;;;;5075476;28;20489;-73
2021/03/29 06:17:00;;;;;;;6.10;4.30;;;14.10;71.50;;;;;;5076434;28;20419;-73
2021/03/29 06:19:52;;;;;;;8.93;5.50;;;14.40;71.10;;;;;;5075884;28;20555;-72
2021/03/29 06:22:21;;;;;;;7.60;5.60;;;14.60;72.00;;;;;;5074318;28;20439;-72
2021/03/29 06:25:08;;;;;;;5.17;4.07;;;14.80;70.80;;;;;;5074629;28;20430;-73
2021/03/29 06:27:56;;;;;;;6.70;4.10;;;15.00;69.60;;;;;;5071296;28;20513;-73
2021/03/29 06:30:33;;;;;;;5.47;5.07;;;15.20;68.80;;;;;;5074726;28;20900;-73
2021/03/29 06:33:14;;;;;;;4.67;4.23;;;15.30;68.80;;;;;;5060827;28;20418;-73
2021/03/29 06:35:46;;;;;;;4.40;4.00;;;15.40;67.30;;;;;;5082565;28;20429;-73
2021/03/29 06:38:27;;;;;;;7.20;6.60;;;15.50;67.50;;;;;;5081684;28;20933;-73
2021/03/29 06:40:58;;;;;;;6.97;4.80;;;15.40;67.50;;;;;;5077016;28;20934;-73
2021/03/29 06:43:30;;;;;;;7.63;5.90;;;15.50;67.70;;;;;;5074739;28;20473;-73
2021/03/29 06:46:07;;;;;;;6.17;3.93;;;15.60;67.00;;;;;;5072926;28;20769;-73
2021/03/29 06:48:37;;;;;;;5.70;5.20;;;15.50;66.30;;;;;;5074579;28;20457;-72
2021/03/29 06:51:21;;;;;;;5.13;4.70;;;15.60;67.90;;;;;;5075259;28;20450;-73
2021/03/29 06:54:04;;;;;;;7.50;4.23;;;15.60;67.20;;;;;;5075676;28;20894;-73
2021/03/29 06:56:36;;;;;;;7.67;6.87;;;15.70;66.80;;;;;;5083670;28;20447;-73
2021/03/29 06:59:04;;;;;;;8.57;5.17;;;15.80;67.00;;;;;;5095366;28;20417;-73
2021/03/29 07:01:36;;;;;;;9.40;5.43;;;15.90;67.40;;;;;;5089313;28;20416;-73
2021/03/29 07:04:04;;;;;;;5.90;5.47;;;15.90;66.30;;;;;;5074161;28;20911;-73
2021/03/29 07:06:31;;;;;;;6.60;5.17;;;16.00;67.00;;;;;;5074322;28;20924;-73
2021/03/29 07:09:08;;;;;;;6.10;5.50;;;16.00;66.80;;;;;;5073109;28;20409;-73
2021/03/29 07:11:35;;;;;;;4.80;3.70;;;16.10;66.20;;;;;;5075010;28;20452;-73
2021/03/29 07:14:03;;;;;;;5.80;5.20;;;16.10;65.90;;;;;;5074281;28;20408;-73
2021/03/29 07:16:29;;;;;;;6.37;5.63;;;16.10;65.90;;;;;;5074505;28;20421;-73
2021/03/29 07:18:57;;;;;;;4.37;3.93;;;16.20;66.30;;;;;;5074199;28;20418;-73
2021/03/29 07:21:23;;;;;;;5.30;3.20;;;16.20;66.00;;;;;;5074427;28;20417;-73
2021/03/29 07:23:50;;;;;;;7.37;3.50;;;16.20;66.10;;;;;;5072921;28;20401;-73
2021/03/29 07:26:27;;;;;;;6.40;3.90;;;16.30;66.80;;;;;;5074266;28;20761;-73
2021/03/29 07:28:54;;;;;;;6.70;3.93;;;16.30;65.90;;;;;;5074000;28;20411;-73
2021/03/29 07:31:56;;;;;;;6.23;5.60;;;16.30;66.70;;;;;;5054543;28;20480;-73
2021/03/29 07:34:42;;;;;;;6.73;4.57;;;16.30;67.70;;;;;;5051301;28;20477;-73
2021/03/29 07:37:28;;;;;;;7.43;4.03;;;16.40;67.00;;;;;;5057083;28;20418;-73
2021/03/29 07:39:54;;;;;;;4.73;3.50;;;16.40;66.50;;;;;;5073033;28;20426;-72
2021/03/29 07:42:23;;;;;;;5.23;3.70;;;16.40;67.90;;;;;;5074170;28;20425;-73
2021/03/29 07:45:05;;;;;;;6.53;3.70;;;16.50;67.00;;;;;;5072341;28;20946;-73
2021/03/29 07:47:49;;;;;;;6.97;3.77;;;16.50;66.40;;;;;;5074184;28;20966;-73
2021/03/29 07:50:36;;;;;;;6.77;3.63;;;16.40;66.40;;;;;;5074259;28;20468;-72
2021/03/29 07:53:20;;;;;;;4.60;4.10;;;16.40;66.20;;;;;;5072399;28;20899;-73
2021/03/29 07:55:48;;;;;;;5.13;3.50;;;16.40;67.50;;;;;;5073131;28;20416;-73
2021/03/29 07:58:16;;;;;;;18.20;4.83;;;16.40;67.00;;;;;;5073590;28;20421;-72
2021/03/29 08:00:44;;;;;;;9.27;3.90;;;16.30;66.90;;;;;;5082608;28;20428;-72
2021/03/29 08:03:13;;;;;;;8.13;3.97;;;16.20;67.20;;;;;;5074885;28;20418;-72
2021/03/29 08:05:38;;;;;;;5.30;3.80;;;16.10;66.90;;;;;;5073462;28;20411;-72
2021/03/29 08:08:27;;;;;;;4.40;3.57;;;16.00;67.30;;;;;;5070704;28;20422;-72
2021/03/29 08:11:04;;;;;;;4.13;3.37;;;16.00;69.00;;;;;;5051611;28;20237;-72
2021/03/29 08:13:56;;;;;;;4.50;3.63;;;15.90;69.40;;;;;;5072753;28;20433;-71
2021/03/29 08:16:22;;;;;;;6.33;4.07;;;15.90;69.40;;;;;;5072521;28;20452;-72
2021/03/29 08:19:06;;;;;;;5.80;4.87;;;15.90;70.00;;;;;;5072074;28;20424;-72
2021/03/29 08:22:00;;;;;;;4.27;3.97;;;15.80;70.40;;;;;;5073512;28;20172;-71
2021/03/29 08:24:39;;;;;;;4.43;4.00;;;15.70;70.50;;;;;;5072875;28;20988;-72
2021/03/29 08:27:15;;;;;;;4.70;3.63;;;15.70;70.50;;;;;;5071585;28;20413;-72
2021/03/29 08:29:43;;;;;;;3.97;3.77;;;15.80;71.00;;;;;;5071764;28;20425;-72
2021/03/29 08:32:13;;;;;;;3.70;3.40;;;15.80;70.80;;;;;;5058068;28;20426;-72
2021/03/29 08:34:53;;;;;;;3.40;3.10;;;15.80;71.70;;;;;;5089121;28;20438;-72
2021/03/29 08:37:45;;;;;;;5.70;4.80;;;15.90;71.80;;;;;;5085876;28;20417;-72
2021/03/29 08:40:13;;;;;;;4.70;3.17;;;16.00;69.30;;;;;;5052824;28;20411;-72
2021/03/29 08:42:41;;;;;;;4.50;4.10;;;16.10;70.00;;;;;;5071248;28;20917;-72
2021/03/29 08:45:12;;;;;;;6.40;4.30;;;16.10;69.10;;;;;;5082301;28;20414;-72
2021/03/29 08:47:40;;;;;;;5.67;3.10;;;16.20;68.70;;;;;;5071704;28;20532;-72
2021/03/29 08:50:22;;;;;;;6.87;3.67;;;16.30;68.90;;;;;;5071714;28;20450;-72
2021/03/29 08:52:56;;;;;;;4.37;4.00;;;16.40;69.20;;;;;;5070615;28;20908;-72
2021/03/29 08:55:25;;;;;;;6.87;5.10;;;16.50;65.60;;;;;;5072354;28;20402;-72
2021/03/29 08:57:54;;;;;;;6.43;3.30;;;16.50;67.10;;;;;;5070769;28;20414;-72
2021/03/29 09:00:26;;;;;;;4.60;4.30;;;16.60;66.10;;;;;;5072305;28;20828;-72
2021/03/29 09:02:52;;;;;;;6.93;3.30;;;16.70;66.40;;;;;;5072334;28;20480;-72
2021/03/29 09:05:20;;;;;;;3.53;3.20;;;16.70;67.00;;;;;;5072812;28;20456;-72
2021/03/29 09:07:52;;;;;;;4.87;3.40;;;16.70;64.60;;;;;;5072033;28;20565;-73
2021/03/29 09:10:24;;;;;;;4.00;3.60;;;16.60;65.30;;;;;;5071764;28;20469;-72
2021/03/29 09:13:05;;;;;;;3.07;2.80;;;16.60;63.80;;;;;;5070705;28;20490;-73
2021/03/29 09:15:36;;;;;;;4.77;3.10;;;16.70;64.80;;;;;;5072657;28;20956;-72
2021/03/29 09:18:07;;;;;;;6.10;5.43;;;16.60;60.90;;;;;;5071178;28;20476;-72
2021/03/29 09:20:38;;;;;;;3.50;3.07;;;16.70;61.60;;;;;;5071896;28;20939;-72
2021/03/29 09:23:04;;;;;;;5.13;4.57;;;16.70;59.60;;;;;;5071610;28;20414;-72
2021/03/29 09:25:38;;;;;;;4.27;3.10;;;16.90;61.90;;;;;;5071858;28;20923;-72
2021/03/29 09:30:54;;;;;;;3.43;3.00;;;17.30;60.20;;;;;;5072304;28;20931;-72
2021/03/29 09:33:22;;;;;;;4.47;2.67;;;17.50;60.50;;;;;;5071877;28;20974;-72
2021/03/29 09:35:50;;;;;;;5.23;3.20;;;17.60;59.20;;;;;;5070035;28;20754;-72
2021/03/29 09:38:34;;;;;;;3.20;2.90;;;17.70;59.00;;;;;;5069828;28;20817;-72
2021/03/29 09:41:01;;;;;;;4.07;3.80;;;17.90;58.00;;;;;;5065246;28;20404;-73
2021/03/29 09:43:26;;;;;;;3.20;3.00;;;17.90;57.10;;;;;;5072444;28;20399;-72
2021/03/29 09:46:05;;;;;;;4.00;2.73;;;18.00;57.40;;;;;;5070595;28;20527;-72
2021/03/29 09:48:32;;;;;;;3.20;3.00;;;18.20;56.10;;;;;;5070878;28;20234;-72
2021/03/29 09:50:58;;;;;;;3.40;3.10;;;18.30;55.50;;;;;;5071074;28;20447;-72
2021/03/29 09:53:32;;;;;;;3.83;3.23;;;18.30;55.80;;;;;;5071600;28;20434;-72
2021/03/29 09:56:01;;;;;;;6.30;3.20;;;18.50;56.80;;;;;;5071090;28;20406;-72
2021/03/29 09:58:44;;;;;;;4.03;3.60;;;18.70;57.00;;;;;;5071880;28;20430;-72
2021/03/29 10:01:21;;;;;;;3.43;3.13;;;19.00;55.80;;;;;;5071280;28;20396;-71
2021/03/29 10:03:52;;;;;;;3.90;3.40;;;19.20;54.50;;;;;;5071601;28;20898;-71
2021/03/29 10:06:19;;;;;;;3.13;2.90;;;19.50;54.10;;;;;;5072252;28;20761;-71
2021/03/29 10:09:00;;;;;;;4.77;3.53;;;19.60;51.80;;;;;;5070927;28;20760;-71
2021/03/29 10:11:28;;;;;;;3.70;3.27;;;19.90;53.00;;;;;;5071729;28;20962;-70
2021/03/29 10:14:06;;;;;;;4.30;3.37;;;20.10;51.50;;;;;;5071443;28;20419;-71
2021/03/29 10:16:32;;;;;;;4.80;4.53;;;20.20;52.70;;;;;;5072085;28;20879;-71
2021/03/29 10:19:04;;;;;;;3.60;3.30;;;20.40;50.40;;;;;;5071742;28;20452;-72
2021/03/29 10:21:30;;;;;;;4.20;3.23;;;20.50;49.40;;;;;;5071847;28;20491;-71
2021/03/29 10:24:15;;;;;;;5.73;4.83;;;20.60;49.20;;;;;;5071383;28;20407;-72
2021/03/29 10:26:58;;;;;;;3.90;3.10;;;20.70;49.20;;;;;;5071991;28;20907;-72
2021/03/29 10:29:37;;;;;;;4.23;3.93;;;20.80;49.70;;;;;;5071795;28;20388;-72
2021/03/29 10:32:17;;;;;;;3.03;2.67;;;21.00;47.90;;;;;;5071486;28;20498;-73
2021/03/29 10:34:45;;;;;;;5.70;5.20;;;21.10;47.80;;;;;;5072120;28;20872;-72
2021/03/29 10:37:26;;;;;;;5.80;3.13;;;21.00;46.40;;;;;;5071306;28;20403;-72
2021/03/29 10:39:56;;;;;;;6.07;5.00;;;21.00;46.20;;;;;;5072468;28;20406;-72
2021/03/29 10:42:25;;;;;;;3.50;2.90;;;21.10;47.00;;;;;;5075650;28;20403;-73
2021/03/29 10:44:51;;;;;;;5.40;4.93;;;21.10;46.60;;;;;;5074504;28;20415;-72
2021/03/29 10:47:18;;;;;;;5.07;4.60;;;21.00;47.40;;;;;;5074139;28;20415;-72
2021/03/29 10:49:44;;;;;;;4.40;3.77;;;21.10;49.00;;;;;;5075251;28;20396;-71
2021/03/29 10:52:11;;;;;;;5.10;3.40;;;21.10;46.20;;;;;;5074730;28;20439;-71
2021/03/29 10:54:37;;;;;;;4.87;4.50;;;21.30;47.30;;;;;;5075245;28;20423;-71
2021/03/29 10:57:04;;;;;;;5.77;4.80;;;21.50;47.20;;;;;;5074577;28;20408;-71
2021/03/29 10:59:30;;;;;;;3.70;3.40;;;21.60;45.50;;;;;;5075083;28;20452;-71
2021/03/29 11:01:56;;;;;;;4.93;4.20;;;21.80;45.10;;;;;;5074257;28;20506;-71
2021/03/29 11:04:21;;;;;;;4.13;3.80;;;22.00;45.20;;;;;;5075102;28;20169;-72
2021/03/29 11:06:47;;;;;;;4.93;3.30;;;22.20;46.10;;;;;;5074691;28;20441;-72
2021/03/29 11:09:13;;;;;;;6.77;3.50;;;22.30;43.30;;;;;;5074403;28;20226;-72
2021/03/29 11:11:39;;;;;;;5.40;4.90;;;22.40;43.80;;;;;;5074962;28;20200;-71
2021/03/29 11:14:05;;;;;;;3.80;3.63;;;22.50;44.40;;;;;;5074302;28;20173;-71
2021/03/29 11:16:31;;;;;;;3.70;3.50;;;22.60;44.60;;;;;;5075086;28;20799;-71
2021/03/29 11:18:57;;;;;;;5.00;4.10;;;22.70;44.50;;;;;;5073562;28;20435;-72
2021/03/29 11:21:23;;;;;;;5.17;4.50;;;22.80;44.10;;;;;;5074088;28;20502;-74
2021/03/29 11:23:49;;;;;;;4.33;4.03;;;22.90;42.80;;;;;;5074390;28;20506;-71
2021/03/29 11:26:15;;;;;;;4.03;3.57;;;23.10;44.60;;;;;;5073322;28;20452;-72
2021/03/29 11:28:41;;;;;;;3.77;3.47;;;23.30;43.30;;;;;;5074496;28;20235;-72
2021/03/29 11:31:07;;;;;;;3.70;3.30;;;23.50;43.80;;;;;;5073549;28;20264;-73
2021/03/29 11:33:33;;;;;;;4.83;3.23;;;23.70;44.80;;;;;;5074594;28;20177;-72
2021/03/29 11:35:59;;;;;;;3.20;3.00;;;23.80;42.30;;;;;;5073878;28;20404;-72
2021/03/29 11:38:25;;;;;;;3.40;3.20;;;23.90;40.30;;;;;;5074275;28;20484;-72
2021/03/29 11:40:50;;;;;;;4.30;3.70;;;23.90;39.60;;;;;;5074438;28;20423;-71
2021/03/29 11:43:16;;;;;;;4.20;3.43;;;23.90;39.20;;;;;;5073767;28;20263;-71
2021/03/29 11:45:42;;;;;;;3.40;3.10;;;23.90;38.70;;;;;;5074238;28;20207;-71
2021/03/29 11:48:08;;;;;;;3.50;3.30;;;23.90;39.00;;;;;;5073878;28;20625;-72
2021/03/29 11:50:34;;;;;;;4.37;3.50;;;24.00;38.50;;;;;;5073660;28;20559;-71
2021/03/29 11:52:59;;;;;;;4.20;3.00;;;24.00;38.80;;;;;;5073199;28;20412;-72
2021/03/29 11:55:26;;;;;;;3.27;3.07;;;23.90;36.20;;;;;;5073547;28;20181;-72
2021/03/29 11:57:55;;;;;;;3.40;3.10;;;23.90;36.90;;;;;;5074002;28;20169;-72
2021/03/29 12:00:33;;;;;;;2.80;2.57;;;23.90;37.60;;;;;;5073202;28;20426;-72
2021/03/29 12:03:12;;;;;;;4.60;2.90;;;23.80;35.70;;;;;;5072795;28;20415;-72
2021/03/29 12:05:45;;;;;;;2.73;2.50;;;23.90;37.20;;;;;;5073915;28;20406;-72
2021/03/29 12:08:22;;;;;;;3.10;2.80;;;24.00;36.90;;;;;;5073168;28;20496;-72
2021/03/29 12:13:33;;;;;;;4.10;3.80;;;23.80;36.50;;;;;;5073974;28;20878;-72
2021/03/29 12:16:01;;;;;;;6.00;3.50;;;23.80;36.10;;;;;;5071588;28;20518;-72
2021/03/29 12:21:03;;;;;;;4.40;4.20;;;24.00;37.40;;;;;;5073309;28;20407;-72
2021/03/29 12:23:30;;;;;;;4.93;4.63;;;24.10;36.50;;;;;;5073530;28;20435;-72
2021/03/29 12:25:58;;;;;;;5.17;4.77;;;24.00;35.40;;;;;;5072839;28;20434;-73
2021/03/29 12:28:28;;;;;;;3.87;2.90;;;24.00;34.10;;;;;;5072356;28;20415;-72
2021/03/29 12:30:55;;;;;;;4.27;4.07;;;23.90;36.50;;;;;;5072922;28;20505;-73
2021/03/29 12:33:22;;;;;;;4.10;3.70;;;23.90;35.00;;;;;;5073027;28;20751;-72
2021/03/29 12:35:48;;;;;;;3.43;3.17;;;23.90;35.20;;;;;;5072839;28;20431;-73
2021/03/29 12:38:14;;;;;;;4.10;3.70;;;24.00;34.80;;;;;;5071800;28;20456;-75
2021/03/29 12:40:45;;;;;;;4.07;3.87;;;24.00;35.50;;;;;;5071888;28;20887;-72
2021/03/29 12:43:17;;;;;;;3.90;3.60;;;24.10;35.40;;;;;;5071470;28;20422;-72
2021/03/29 12:45:44;;;;;;;2.70;2.50;;;24.10;35.70;;;;;;5076543;28;20811;-73
2021/03/29 12:48:13;;;;;;;4.47;3.50;;;24.10;35.80;;;;;;5085117;28;20454;-72
2021/03/29 12:50:39;;;;;;;4.87;4.57;;;24.10;35.70;;;;;;5071602;28;20453;-72
2021/03/29 12:53:05;;;;;;;6.10;5.50;;;24.00;34.60;;;;;;5077963;28;20986;-71
2021/03/29 12:55:32;;;;;;;6.10;5.70;;;24.00;35.80;;;;;;5072633;28;20517;-72
2021/03/29 12:57:58;;;;;;;3.03;2.83;;;24.10;36.40;;;;;;5072029;28;20550;-73
2021/03/29 13:00:26;;;;;;;3.40;2.90;;;24.00;35.00;;;;;;5076898;28;20426;-72
2021/03/29 13:02:55;;;;;;;5.80;5.37;;;24.00;34.10;;;;;;5071695;28;20569;-72
2021/03/29 13:08:15;;;;;;;4.87;3.20;;;24.10;34.20;;;;;;5050725;28;20469;-73
2021/03/29 13:13:31;;;;;;;4.30;3.50;;;24.10;34.60;;;;;;5058042;28;20423;-73
2021/03/29 13:15:57;;;;;;;3.57;3.30;;;24.10;33.30;;;;;;5072549;28;20544;-73
2021/03/29 13:18:24;;;;;;;3.40;3.20;;;24.00;33.30;;;;;;5070426;28;20460;-72